createdAt,value
2018-08-12T00:00:53.397Z,4.00
2018-08-12T00:01:54.023Z,4.00
2018-08-12T00:02:53.396Z,4.00
2018-08-12T00:03:53.399Z,4.00
2018-08-12T00:04:53.399Z,4.00
2018-08-12T00:05:53.399Z,4.00
2018-08-12T00:06:53.397Z,4.00
2018-08-12T00:07:53.400Z,4.00
2018-08-12T00:08:53.399Z,4.00
2018-08-12T00:09:53.399Z,4.00
2018-08-12T00:10:53.398Z,4.00
2018-08-12T00:11:53.435Z,4.00
2018-08-12T00:12:53.400Z,4.00
2018-08-12T00:13:53.399Z,4.00
2018-08-12T00:14:53.400Z,8.00
2018-08-12T00:15:53.401Z,4.00
2018-08-12T00:16:53.399Z,4.00
2018-08-12T00:17:53.398Z,4.00
2018-08-12T00:18:53.899Z,4.00
2018-08-12T00:19:53.400Z,4.00
2018-08-12T00:20:53.397Z,4.00
2018-08-12T00:21:53.497Z,4.00
2018-08-12T00:22:53.398Z,8.00
2018-08-12T00:23:53.399Z,4.00
2018-08-12T00:24:53.400Z,8.00
2018-08-12T00:25:53.414Z,4.00
2018-08-12T00:26:53.400Z,8.00
2018-08-12T00:27:53.400Z,4.00
2018-08-12T00:28:53.429Z,8.00
2018-08-12T00:29:53.400Z,8.00
2018-08-12T00:30:53.401Z,8.00
2018-08-12T00:31:53.403Z,4.00
2018-08-12T00:32:53.402Z,4.00
2018-08-12T00:33:53.400Z,8.00
2018-08-12T00:34:53.409Z,4.00
2018-08-12T00:35:53.400Z,4.00
2018-08-12T00:36:53.399Z,8.00
2018-08-12T00:37:53.411Z,4.00
2018-08-12T00:38:53.488Z,4.00
2018-08-12T00:39:53.406Z,4.00
2018-08-12T00:40:53.400Z,8.00
2018-08-12T00:41:53.401Z,8.00
2018-08-12T00:42:53.401Z,8.00
2018-08-12T00:43:53.405Z,8.00
2018-08-12T00:44:53.399Z,4.00
2018-08-12T00:45:53.403Z,4.00
2018-08-12T00:46:53.402Z,8.00
2018-08-12T00:47:53.401Z,8.00
2018-08-12T00:48:53.400Z,4.00
2018-08-12T00:49:53.400Z,4.00
2018-08-12T00:50:53.439Z,4.00
2018-08-12T00:51:53.402Z,4.00
2018-08-12T00:52:53.400Z,4.00
2018-08-12T00:53:53.400Z,4.00
2018-08-12T00:54:53.404Z,4.00
2018-08-12T00:55:53.403Z,4.00
2018-08-12T00:56:53.400Z,4.00
2018-08-12T00:57:53.409Z,4.00
2018-08-12T00:58:53.409Z,4.00
2018-08-12T00:59:53.399Z,4.00
2018-08-12T01:00:53.398Z,4.00
2018-08-12T01:01:53.399Z,4.00
2018-08-12T01:02:53.399Z,4.00
2018-08-12T01:03:53.400Z,4.00
2018-08-12T01:04:53.397Z,4.00
2018-08-12T01:05:53.400Z,4.00
2018-08-12T01:06:53.399Z,4.00
2018-08-12T01:07:53.403Z,8.00
2018-08-12T01:08:53.404Z,4.00
2018-08-12T01:09:53.400Z,4.00
2018-08-12T01:10:53.400Z,4.00
2018-08-12T01:11:53.412Z,4.00
2018-08-12T01:12:53.397Z,8.00
2018-08-12T01:13:53.395Z,4.00
2018-08-12T01:14:53.399Z,4.00
2018-08-12T01:15:53.396Z,4.00
2018-08-12T01:16:53.396Z,8.00
2018-08-12T01:17:53.395Z,4.00
2018-08-12T01:18:53.395Z,8.00
2018-08-12T01:19:53.396Z,4.00
2018-08-12T01:20:53.398Z,4.00
2018-08-12T01:21:53.393Z,4.00
2018-08-12T01:22:53.394Z,4.00
2018-08-12T01:23:53.395Z,4.00
2018-08-12T01:24:53.395Z,8.00
2018-08-12T01:25:53.482Z,4.00
2018-08-12T01:26:53.413Z,8.00
2018-08-12T01:27:53.392Z,8.00
2018-08-12T01:28:53.394Z,8.00
2018-08-12T01:29:53.390Z,4.00
2018-08-12T01:30:53.407Z,4.00
2018-08-12T01:31:53.390Z,4.00
2018-08-12T01:32:53.389Z,4.00
2018-08-12T01:33:53.393Z,8.00
2018-08-12T01:34:53.391Z,4.00
2018-08-12T01:35:53.443Z,4.00
2018-08-12T01:36:53.388Z,8.00
2018-08-12T01:37:53.388Z,4.00
2018-08-12T01:38:53.387Z,8.00
2018-08-12T01:39:53.388Z,8.00
2018-08-12T01:40:53.404Z,8.00
2018-08-12T01:41:53.386Z,8.00
2018-08-12T01:42:53.386Z,8.00
2018-08-12T01:43:53.388Z,4.00
2018-08-12T01:44:53.392Z,8.00
2018-08-12T01:45:53.386Z,4.00
2018-08-12T01:46:53.388Z,4.00
2018-08-12T01:47:53.384Z,4.00
2018-08-12T01:48:53.383Z,4.00
2018-08-12T01:49:53.383Z,4.00
2018-08-12T01:50:53.383Z,8.00
2018-08-12T01:51:53.384Z,8.00
2018-08-12T01:52:53.381Z,4.00
2018-08-12T01:53:53.384Z,8.00
2018-08-12T01:54:53.380Z,4.00
2018-08-12T01:55:53.380Z,4.00
2018-08-12T01:56:53.380Z,4.00
2018-08-12T01:57:53.381Z,4.00
2018-08-12T01:58:53.384Z,4.00
2018-08-12T01:59:53.391Z,4.00
2018-08-12T02:00:53.376Z,4.00
2018-08-12T02:01:53.415Z,4.00
2018-08-12T02:02:53.376Z,4.00
2018-08-12T02:03:53.376Z,4.00
2018-08-12T02:04:53.701Z,8.00
2018-08-12T02:05:53.373Z,4.00
2018-08-12T02:06:53.374Z,4.00
2018-08-12T02:07:53.373Z,4.00
2018-08-12T02:08:53.372Z,4.00
2018-08-12T02:09:53.371Z,4.00
2018-08-12T02:10:53.371Z,4.00
2018-08-12T02:11:53.370Z,4.00
2018-08-12T02:12:53.369Z,4.00
2018-08-12T02:13:53.369Z,4.00
2018-08-12T02:14:53.369Z,4.00
2018-08-12T02:15:53.371Z,4.00
2018-08-12T02:16:53.369Z,8.00
2018-08-12T02:17:53.366Z,8.00
2018-08-12T02:18:53.366Z,4.00
2018-08-12T02:19:53.368Z,4.00
2018-08-12T02:20:53.363Z,4.00
2018-08-12T02:21:53.364Z,8.00
2018-08-12T02:22:53.363Z,4.00
2018-08-12T02:23:53.364Z,4.00
2018-08-12T02:24:53.364Z,4.00
2018-08-12T02:25:53.361Z,4.00
2018-08-12T02:26:53.360Z,4.00
2018-08-12T02:27:53.359Z,4.00
2018-08-12T02:28:53.358Z,4.00
2018-08-12T02:29:53.358Z,4.00
2018-08-12T02:30:53.362Z,8.00
2018-08-12T02:31:53.359Z,4.00
2018-08-12T02:32:53.355Z,4.00
2018-08-12T02:33:53.358Z,8.00
2018-08-12T02:34:53.356Z,4.00
2018-08-12T02:35:54.111Z,4.00
2018-08-12T02:36:53.352Z,4.00
2018-08-12T02:37:53.353Z,4.00
2018-08-12T02:38:53.361Z,4.00
2018-08-12T02:39:53.351Z,4.00
2018-08-12T02:40:53.348Z,4.00
2018-08-12T02:41:53.357Z,4.00
2018-08-12T02:42:53.347Z,4.00
2018-08-12T02:43:53.348Z,4.00
2018-08-12T02:44:53.345Z,4.00
2018-08-12T02:45:53.345Z,4.00
2018-08-12T02:46:53.345Z,4.00
2018-08-12T02:47:53.344Z,4.00
2018-08-12T02:48:53.343Z,4.00
2018-08-12T02:49:53.342Z,4.00
2018-08-12T02:50:53.343Z,4.00
2018-08-12T02:51:53.340Z,4.00
2018-08-12T02:52:53.357Z,4.00
2018-08-12T02:53:53.339Z,4.00
2018-08-12T02:54:53.338Z,4.00
2018-08-12T02:55:53.384Z,4.00
2018-08-12T02:56:53.338Z,4.00
2018-08-12T02:57:53.336Z,4.00
2018-08-12T02:58:53.337Z,4.00
2018-08-12T02:59:53.333Z,4.00
2018-08-12T03:00:53.334Z,4.00
2018-08-12T03:01:53.332Z,4.00
2018-08-12T03:02:53.331Z,4.00
2018-08-12T03:03:53.330Z,4.00
2018-08-12T03:04:53.329Z,4.00
2018-08-12T03:05:53.329Z,8.00
2018-08-12T03:06:53.328Z,8.00
2018-08-12T03:07:53.335Z,8.00
2018-08-12T03:08:53.325Z,8.00
2018-08-12T03:09:53.334Z,8.00
2018-08-12T03:10:53.350Z,8.00
2018-08-12T03:11:53.326Z,8.00
2018-08-12T03:12:53.321Z,8.00
2018-08-12T03:13:53.320Z,8.00
2018-08-12T03:14:53.321Z,8.00
2018-08-12T03:15:53.321Z,8.00
2018-08-12T03:16:53.327Z,8.00
2018-08-12T03:17:53.317Z,8.00
2018-08-12T03:18:53.316Z,8.00
2018-08-12T03:19:53.314Z,8.00
2018-08-12T03:20:53.313Z,4.00
2018-08-12T03:21:53.316Z,4.00
2018-08-12T03:22:53.315Z,4.00
2018-08-12T03:23:53.312Z,8.00
2018-08-12T03:24:53.314Z,8.00
2018-08-12T03:25:53.309Z,8.00
2018-08-12T03:26:53.307Z,8.00
2018-08-12T03:27:53.309Z,4.00
2018-08-12T03:28:53.304Z,8.00
2018-08-12T03:29:53.310Z,8.00
2018-08-12T03:30:53.304Z,8.00
2018-08-12T03:31:53.306Z,8.00
2018-08-12T03:32:53.302Z,8.00
2018-08-12T03:33:53.299Z,8.00
2018-08-12T03:34:53.304Z,8.00
2018-08-12T03:35:53.318Z,8.00
2018-08-12T03:36:53.296Z,12.00
2018-08-12T03:37:53.297Z,8.00
2018-08-12T03:38:53.294Z,12.00
2018-08-12T03:39:53.313Z,12.00
2018-08-12T03:40:53.295Z,16.00
2018-08-12T03:41:53.293Z,16.00
2018-08-12T03:42:53.290Z,16.00
2018-08-12T03:43:53.290Z,24.00
2018-08-12T03:44:53.288Z,24.00
2018-08-12T03:45:53.287Z,24.00
2018-08-12T03:46:53.286Z,28.00
2018-08-12T03:47:53.290Z,32.00
2018-08-12T03:48:53.322Z,36.00
2018-08-12T03:49:53.282Z,40.00
2018-08-12T03:50:53.283Z,44.00
2018-08-12T03:51:53.281Z,48.00
2018-08-12T03:52:53.279Z,52.00
2018-08-12T03:53:53.280Z,56.00
2018-08-12T03:54:53.277Z,64.00
2018-08-12T03:55:53.278Z,68.00
2018-08-12T03:56:53.275Z,72.00
2018-08-12T03:57:53.277Z,80.00
2018-08-12T03:58:53.273Z,88.00
2018-08-12T03:59:53.272Z,92.00
2018-08-12T04:00:53.290Z,104.00
2018-08-12T04:01:53.269Z,108.00
2018-08-12T04:02:53.271Z,120.00
2018-08-12T04:03:53.272Z,128.00
2018-08-12T04:04:53.265Z,132.00
2018-08-12T04:05:53.265Z,144.00
2018-08-12T04:06:53.264Z,156.00
2018-08-12T04:07:53.344Z,164.00
2018-08-12T04:08:53.261Z,176.00
2018-08-12T04:09:53.259Z,188.00
2018-08-12T04:10:53.262Z,200.00
2018-08-12T04:11:53.257Z,212.00
2018-08-12T04:12:53.255Z,228.00
2018-08-12T04:13:53.255Z,240.00
2018-08-12T04:14:53.254Z,256.00
2018-08-12T04:15:53.253Z,268.00
2018-08-12T04:16:53.249Z,284.00
2018-08-12T04:17:53.250Z,296.00
2018-08-12T04:18:53.279Z,308.00
2018-08-12T04:19:53.247Z,316.00
2018-08-12T04:20:53.244Z,324.00
2018-08-12T04:21:53.244Z,324.00
2018-08-12T04:22:53.243Z,328.00
2018-08-12T04:23:53.243Z,332.00
2018-08-12T04:24:53.241Z,348.00
2018-08-12T04:25:53.239Z,376.00
2018-08-12T04:26:53.237Z,404.00
2018-08-12T04:27:53.236Z,432.00
2018-08-12T04:28:53.238Z,456.00
2018-08-12T04:29:53.264Z,460.00
2018-08-12T04:30:53.233Z,480.00
2018-08-12T04:31:53.234Z,484.00
2018-08-12T04:32:53.229Z,472.00
2018-08-12T04:33:53.232Z,520.00
2018-08-12T04:34:53.230Z,568.00
2018-08-12T04:35:53.227Z,584.00
2018-08-12T04:36:53.224Z,584.00
2018-08-12T04:37:53.236Z,624.00
2018-08-12T04:38:53.765Z,712.00
2018-08-12T04:39:53.222Z,848.00
2018-08-12T04:40:53.221Z,948.00
2018-08-12T04:41:53.219Z,1052.00
2018-08-12T04:42:53.217Z,1480.00
2018-08-12T04:43:53.215Z,2536.00
2018-08-12T04:44:53.219Z,3208.00
2018-08-12T04:45:53.238Z,2448.00
2018-08-12T04:46:53.216Z,1648.00
2018-08-12T04:47:53.212Z,1588.00
2018-08-12T04:48:53.209Z,1832.00
2018-08-12T04:49:53.209Z,2180.00
2018-08-12T04:50:53.210Z,2732.00
2018-08-12T04:51:53.205Z,3264.00
2018-08-12T04:52:53.205Z,3592.00
2018-08-12T04:53:53.203Z,4084.00
2018-08-12T04:54:53.204Z,4424.00
2018-08-12T04:55:53.202Z,4244.00
2018-08-12T04:56:53.200Z,2424.00
2018-08-12T04:57:53.202Z,2072.00
2018-08-12T04:58:53.200Z,2216.00
2018-08-12T04:59:53.200Z,2384.00
2018-08-12T05:00:53.198Z,2604.00
2018-08-12T05:01:53.198Z,2812.00
2018-08-12T05:02:53.198Z,2520.00
2018-08-12T05:03:53.201Z,2544.00
2018-08-12T05:04:53.195Z,2576.00
2018-08-12T05:05:53.194Z,2692.00
2018-08-12T05:06:53.201Z,2956.00
2018-08-12T05:07:53.195Z,3076.00
2018-08-12T05:08:53.195Z,3228.00
2018-08-12T05:09:54.151Z,3284.00
2018-08-12T05:10:53.195Z,2000.00
2018-08-12T05:11:53.194Z,3512.00
2018-08-12T05:12:53.190Z,3592.00
2018-08-12T05:13:53.191Z,3640.00
2018-08-12T05:14:53.192Z,3784.00
2018-08-12T05:15:53.189Z,3684.00
2018-08-12T05:16:53.189Z,3532.00
2018-08-12T05:17:53.191Z,3204.00
2018-08-12T05:18:53.189Z,2964.00
2018-08-12T05:19:53.189Z,3092.00
2018-08-12T05:20:53.188Z,3348.00
2018-08-12T05:21:53.189Z,3904.00
2018-08-12T05:22:53.188Z,4372.00
2018-08-12T05:23:53.187Z,4792.00
2018-08-12T05:24:53.188Z,4900.00
2018-08-12T05:25:53.186Z,5028.00
2018-08-12T05:26:53.184Z,4920.00
2018-08-12T05:27:53.184Z,4684.00
2018-08-12T05:28:53.184Z,4724.00
2018-08-12T05:29:53.187Z,6652.00
2018-08-12T05:30:53.186Z,9236.00
2018-08-12T05:31:53.185Z,8908.00
2018-08-12T05:32:53.182Z,8648.00
2018-08-12T05:33:53.186Z,8676.00
2018-08-12T05:34:53.185Z,7576.00
2018-08-12T05:35:53.185Z,8756.00
2018-08-12T05:36:53.185Z,17056.00
2018-08-12T05:37:53.183Z,19072.00
2018-08-12T05:38:53.183Z,12668.00
2018-08-12T05:39:53.183Z,8788.00
2018-08-12T05:40:53.188Z,6532.00
2018-08-12T05:41:53.185Z,5728.00
2018-08-12T05:42:53.186Z,9288.00
2018-08-12T05:43:53.188Z,11436.00
2018-08-12T05:44:53.192Z,10820.00
2018-08-12T05:45:53.188Z,11244.00
2018-08-12T05:46:53.192Z,11492.00
2018-08-12T05:47:53.192Z,10128.00
2018-08-12T05:48:53.193Z,7596.00
2018-08-12T05:49:53.192Z,9540.00
2018-08-12T05:50:53.199Z,8596.00
2018-08-12T05:51:53.198Z,6632.00
2018-08-12T05:52:53.195Z,6068.00
2018-08-12T05:53:53.197Z,6008.00
2018-08-12T05:54:53.201Z,5744.00
2018-08-12T05:55:53.200Z,5604.00
2018-08-12T05:56:53.203Z,5636.00
2018-08-12T05:57:53.204Z,5716.00
2018-08-12T05:58:53.206Z,5316.00
2018-08-12T05:59:53.204Z,5092.00
2018-08-12T06:00:53.206Z,5260.00
2018-08-12T06:01:53.206Z,5216.00
2018-08-12T06:02:53.278Z,5416.00
2018-08-12T06:03:53.208Z,5264.00
2018-08-12T06:04:53.209Z,5280.00
2018-08-12T06:05:53.210Z,5472.00
2018-08-12T06:06:53.211Z,5408.00
2018-08-12T06:07:53.216Z,5508.00
2018-08-12T06:08:53.234Z,5436.00
2018-08-12T06:09:53.213Z,4744.00
2018-08-12T06:10:53.214Z,5344.00
2018-08-12T06:11:53.215Z,5288.00
2018-08-12T06:12:53.217Z,5184.00
2018-08-12T06:13:53.217Z,5116.00
2018-08-12T06:14:53.219Z,4944.00
2018-08-12T06:15:53.221Z,4396.00
2018-08-12T06:16:53.219Z,4724.00
2018-08-12T06:17:53.219Z,4472.00
2018-08-12T06:18:53.221Z,4456.00
2018-08-12T06:19:53.222Z,4212.00
2018-08-12T06:20:53.222Z,4264.00
2018-08-12T06:21:53.226Z,4144.00
2018-08-12T06:22:53.225Z,3924.00
2018-08-12T06:23:53.224Z,3876.00
2018-08-12T06:24:53.227Z,3672.00
2018-08-12T06:25:53.226Z,3596.00
2018-08-12T06:26:53.227Z,3580.00
2018-08-12T06:27:53.227Z,3552.00
2018-08-12T06:28:53.230Z,3440.00
2018-08-12T06:29:53.228Z,3340.00
2018-08-12T06:30:53.229Z,3196.00
2018-08-12T06:31:53.238Z,2916.00
2018-08-12T06:32:53.233Z,3044.00
2018-08-12T06:33:53.231Z,2916.00
2018-08-12T06:34:53.232Z,2692.00
2018-08-12T06:35:53.233Z,2536.00
2018-08-12T06:36:53.233Z,2404.00
2018-08-12T06:37:53.233Z,2280.00
2018-08-12T06:38:53.245Z,2192.00
2018-08-12T06:39:53.252Z,2048.00
2018-08-12T06:40:53.261Z,1936.00
2018-08-12T06:41:53.360Z,1836.00
2018-08-12T06:42:53.237Z,1768.00
2018-08-12T06:43:53.238Z,1728.00
2018-08-12T06:44:53.238Z,1680.00
2018-08-12T06:45:53.240Z,1632.00
2018-08-12T06:46:53.239Z,1600.00
2018-08-12T06:47:53.240Z,1568.00
2018-08-12T06:48:53.256Z,1544.00
2018-08-12T06:49:53.241Z,1516.00
2018-08-12T06:50:53.243Z,1504.00
2018-08-12T06:51:53.272Z,1488.00
2018-08-12T06:52:53.243Z,1468.00
2018-08-12T06:53:53.243Z,1448.00
2018-08-12T06:54:53.244Z,1440.00
2018-08-12T06:55:53.245Z,1420.00
2018-08-12T06:56:53.248Z,1404.00
2018-08-12T06:57:53.245Z,1388.00
2018-08-12T06:58:53.246Z,1380.00
2018-08-12T06:59:53.249Z,1364.00
2018-08-12T07:00:53.248Z,1352.00
2018-08-12T07:01:53.248Z,1332.00
2018-08-12T07:02:53.251Z,1320.00
2018-08-12T07:03:53.249Z,1292.00
2018-08-12T07:04:53.252Z,1308.00
2018-08-12T07:05:53.258Z,1312.00
2018-08-12T07:06:53.252Z,1324.00
2018-08-12T07:07:53.251Z,1324.00
2018-08-12T07:08:53.252Z,1320.00
2018-08-12T07:09:53.254Z,1316.00
2018-08-12T07:10:53.253Z,1312.00
2018-08-12T07:11:53.256Z,1308.00
2018-08-12T07:12:53.780Z,1304.00
2018-08-12T07:13:53.255Z,1304.00
2018-08-12T07:14:53.256Z,1300.00
2018-08-12T07:15:53.258Z,1296.00
2018-08-12T07:16:53.255Z,1300.00
2018-08-12T07:17:53.257Z,1300.00
2018-08-12T07:18:53.258Z,1300.00
2018-08-12T07:19:53.261Z,1304.00
2018-08-12T07:20:53.257Z,1304.00
2018-08-12T07:21:53.259Z,1300.00
2018-08-12T07:22:53.260Z,1300.00
2018-08-12T07:23:53.260Z,1300.00
2018-08-12T07:24:53.261Z,1304.00
2018-08-12T07:25:53.262Z,1296.00
2018-08-12T07:26:53.262Z,1288.00
2018-08-12T07:27:53.266Z,1284.00
2018-08-12T07:28:53.270Z,1288.00
2018-08-12T07:29:53.269Z,1288.00
2018-08-12T07:30:53.267Z,1284.00
2018-08-12T07:31:53.267Z,1284.00
2018-08-12T07:32:53.302Z,1284.00
2018-08-12T07:33:53.268Z,1288.00
2018-08-12T07:34:53.270Z,1296.00
2018-08-12T07:35:53.274Z,1312.00
2018-08-12T07:36:53.274Z,1324.00
2018-08-12T07:37:53.271Z,1320.00
2018-08-12T07:38:53.281Z,1304.00
2018-08-12T07:39:53.274Z,1296.00
2018-08-12T07:40:53.273Z,1288.00
2018-08-12T07:41:53.276Z,1284.00
2018-08-12T07:42:53.275Z,1284.00
2018-08-12T07:43:54.164Z,1284.00
2018-08-12T07:44:53.277Z,1268.00
2018-08-12T07:45:53.286Z,1260.00
2018-08-12T07:46:53.282Z,1256.00
2018-08-12T07:47:53.280Z,1256.00
2018-08-12T07:48:53.365Z,1252.00
2018-08-12T07:49:53.283Z,1252.00
2018-08-12T07:50:53.283Z,1256.00
2018-08-12T07:51:53.286Z,1260.00
2018-08-12T07:52:53.289Z,1268.00
2018-08-12T07:53:53.290Z,1272.00
2018-08-12T07:54:53.289Z,1288.00
2018-08-12T07:55:53.348Z,1296.00
2018-08-12T07:56:53.292Z,1304.00
2018-08-12T07:57:53.290Z,1312.00
2018-08-12T07:58:53.291Z,1336.00
2018-08-12T07:59:53.293Z,1356.00
2018-08-12T08:00:53.293Z,1376.00
2018-08-12T08:01:53.296Z,1392.00
2018-08-12T08:02:53.298Z,1400.00
2018-08-12T08:03:53.301Z,1424.00
2018-08-12T08:04:53.300Z,1448.00
2018-08-12T08:05:53.300Z,1480.00
2018-08-12T08:06:53.304Z,1516.00
2018-08-12T08:07:53.306Z,1536.00
2018-08-12T08:08:53.304Z,1548.00
2018-08-12T08:09:53.305Z,1560.00
2018-08-12T08:10:53.307Z,1572.00
2018-08-12T08:11:53.310Z,1588.00
2018-08-12T08:12:53.309Z,1624.00
2018-08-12T08:13:53.312Z,1676.00
2018-08-12T08:14:53.314Z,1716.00
2018-08-12T08:15:53.318Z,1768.00
2018-08-12T08:16:53.316Z,1820.00
2018-08-12T08:17:53.318Z,1844.00
2018-08-12T08:18:53.319Z,1836.00
2018-08-12T08:19:53.347Z,1820.00
2018-08-12T08:20:53.322Z,1824.00
2018-08-12T08:21:53.323Z,1824.00
2018-08-12T08:22:53.331Z,1824.00
2018-08-12T08:23:53.328Z,1796.00
2018-08-12T08:24:53.329Z,1856.00
2018-08-12T08:25:53.409Z,1904.00
2018-08-12T08:26:53.332Z,1900.00
2018-08-12T08:27:53.334Z,1932.00
2018-08-12T08:28:53.336Z,1952.00
2018-08-12T08:29:53.338Z,1988.00
2018-08-12T08:30:53.339Z,2000.00
2018-08-12T08:31:53.546Z,2036.00
2018-08-12T08:32:53.343Z,2116.00
2018-08-12T08:33:53.346Z,2184.00
2018-08-12T08:34:53.348Z,2284.00
2018-08-12T08:35:53.351Z,2328.00
2018-08-12T08:36:53.354Z,2376.00
2018-08-12T08:37:53.358Z,2492.00
2018-08-12T08:38:53.360Z,2616.00
2018-08-12T08:39:53.361Z,2724.00
2018-08-12T08:40:53.361Z,2796.00
2018-08-12T08:41:53.362Z,2912.00
2018-08-12T08:42:53.366Z,3044.00
2018-08-12T08:43:53.429Z,3124.00
2018-08-12T08:44:53.372Z,3180.00
2018-08-12T08:45:53.372Z,3292.00
2018-08-12T08:46:53.379Z,3396.00
2018-08-12T08:47:53.380Z,3476.00
2018-08-12T08:48:53.380Z,3492.00
2018-08-12T08:49:53.441Z,3488.00
2018-08-12T08:50:53.386Z,3484.00
2018-08-12T08:51:53.392Z,3500.00
2018-08-12T08:52:53.391Z,3404.00
2018-08-12T08:53:53.395Z,3512.00
2018-08-12T08:54:53.397Z,3696.00
2018-08-12T08:55:53.455Z,3812.00
2018-08-12T08:56:53.401Z,4132.00
2018-08-12T08:57:53.411Z,6336.00
2018-08-12T08:58:53.409Z,9768.00
2018-08-12T08:59:53.416Z,10888.00
2018-08-12T09:00:53.416Z,13688.00
2018-08-12T09:01:53.417Z,18304.00
2018-08-12T09:02:53.424Z,19168.00
2018-08-12T09:03:53.425Z,19712.00
2018-08-12T09:04:53.428Z,21056.00
2018-08-12T09:05:53.434Z,21376.00
2018-08-12T09:06:53.440Z,20864.00
2018-08-12T09:07:53.501Z,18688.00
2018-08-12T09:08:53.606Z,18560.00
2018-08-12T09:09:53.453Z,20704.00
2018-08-12T09:10:53.455Z,20800.00
2018-08-12T09:11:53.461Z,21568.00
2018-08-12T09:12:53.466Z,21728.00
2018-08-12T09:13:53.472Z,22880.00
2018-08-12T09:14:53.477Z,24480.00
2018-08-12T09:15:53.484Z,24736.00
2018-08-12T09:16:53.489Z,24480.00
2018-08-12T09:17:53.494Z,23936.00
2018-08-12T09:18:53.503Z,23296.00
2018-08-12T09:19:53.509Z,22848.00
2018-08-12T09:20:53.528Z,22688.00
2018-08-12T09:21:53.523Z,21600.00
2018-08-12T09:22:53.528Z,20896.00
2018-08-12T09:23:53.544Z,21696.00
2018-08-12T09:24:53.543Z,22240.00
2018-08-12T09:25:53.548Z,19456.00
2018-08-12T09:26:53.556Z,13688.00
2018-08-12T09:27:53.568Z,8928.00
2018-08-12T09:28:53.581Z,5732.00
2018-08-12T09:29:53.585Z,4888.00
2018-08-12T09:30:53.587Z,4560.00
2018-08-12T09:31:53.593Z,4368.00
2018-08-12T09:32:53.599Z,4252.00
2018-08-12T09:33:53.608Z,4188.00
2018-08-12T09:34:53.637Z,4120.00
2018-08-12T09:35:53.621Z,4132.00
2018-08-12T09:36:53.628Z,4128.00
2018-08-12T09:37:53.634Z,4180.00
2018-08-12T09:38:53.642Z,4200.00
2018-08-12T09:39:53.648Z,4232.00
2018-08-12T09:40:53.655Z,4172.00
2018-08-12T09:41:53.661Z,4132.00
2018-08-12T09:42:53.669Z,4136.00
2018-08-12T09:43:53.675Z,4184.00
2018-08-12T09:44:53.679Z,4108.00
2018-08-12T09:45:55.607Z,4060.00
2018-08-12T09:46:53.770Z,3996.00
2018-08-12T09:47:53.698Z,3836.00
2018-08-12T09:48:53.704Z,3708.00
2018-08-12T09:49:53.710Z,3740.00
2018-08-12T09:50:53.714Z,3676.00
2018-08-12T09:51:53.800Z,3596.00
2018-08-12T09:52:53.725Z,3512.00
2018-08-12T09:53:53.738Z,3276.00
2018-08-12T09:54:53.737Z,3336.00
2018-08-12T09:55:53.743Z,3388.00
2018-08-12T09:56:53.746Z,3392.00
2018-08-12T09:57:53.752Z,3428.00
2018-08-12T09:58:53.760Z,3464.00
2018-08-12T09:59:53.774Z,3424.00
2018-08-12T10:00:53.778Z,3288.00
2018-08-12T10:01:53.774Z,3280.00
2018-08-12T10:02:53.780Z,3296.00
2018-08-12T10:03:53.785Z,3296.00
2018-08-12T10:04:53.789Z,3204.00
2018-08-12T10:05:53.796Z,2944.00
2018-08-12T10:06:53.799Z,2896.00
2018-08-12T10:07:53.806Z,3004.00
2018-08-12T10:08:53.809Z,2988.00
2018-08-12T10:09:53.820Z,2964.00
2018-08-12T10:10:53.824Z,3012.00
2018-08-12T10:11:53.825Z,3044.00
2018-08-12T10:12:53.832Z,3088.00
2018-08-12T10:13:53.867Z,3212.00
2018-08-12T10:14:53.839Z,3348.00
2018-08-12T10:15:53.845Z,3384.00
2018-08-12T10:16:53.849Z,3316.00
2018-08-12T10:17:54.171Z,2952.00
2018-08-12T10:18:53.859Z,2964.00
2018-08-12T10:19:53.864Z,2788.00
2018-08-12T10:20:53.867Z,2512.00
2018-08-12T10:21:53.874Z,2356.00
2018-08-12T10:22:53.889Z,2520.00
2018-08-12T10:23:53.882Z,2552.00
2018-08-12T10:24:53.887Z,2456.00
2018-08-12T10:25:53.894Z,2420.00
2018-08-12T10:26:53.905Z,2380.00
2018-08-12T10:27:53.903Z,2364.00
2018-08-12T10:28:53.925Z,2364.00
2018-08-12T10:29:53.912Z,2364.00
2018-08-12T10:30:53.922Z,2376.00
2018-08-12T10:31:53.937Z,2380.00
2018-08-12T10:32:53.927Z,2392.00
2018-08-12T10:33:53.928Z,2428.00
2018-08-12T10:34:53.934Z,2504.00
2018-08-12T10:35:53.939Z,6012.00
2018-08-12T10:36:53.942Z,34560.00
2018-08-12T10:37:53.947Z,62080.00
2018-08-12T10:38:53.952Z,64352.00
2018-08-12T10:39:53.958Z,63808.00
2018-08-12T10:40:53.963Z,64000.00
2018-08-12T10:41:53.970Z,62528.00
2018-08-12T10:42:53.977Z,61568.00
2018-08-12T10:43:54.032Z,59264.00
2018-08-12T10:44:53.987Z,58112.00
2018-08-12T10:45:53.994Z,57376.00
2018-08-12T10:46:54.003Z,56704.00
2018-08-12T10:47:54.009Z,56704.00
2018-08-12T10:48:54.615Z,57216.00
2018-08-12T10:49:54.025Z,57632.00
2018-08-12T10:50:54.084Z,58240.00
2018-08-12T10:51:54.046Z,59840.00
2018-08-12T10:52:54.054Z,61792.00
2018-08-12T10:53:54.064Z,63872.00
2018-08-12T10:54:54.075Z,63808.00
2018-08-12T10:55:54.086Z,61312.00
2018-08-12T10:56:54.097Z,57568.00
2018-08-12T10:57:54.113Z,57184.00
2018-08-12T10:58:54.121Z,59296.00
2018-08-12T10:59:54.133Z,61984.00
2018-08-12T11:00:54.147Z,62336.00
2018-08-12T11:01:54.159Z,61056.00
2018-08-12T11:02:54.180Z,60800.00
2018-08-12T11:03:54.187Z,62560.00
2018-08-12T11:04:54.197Z,66816.00
2018-08-12T11:05:54.217Z,70624.00
2018-08-12T11:06:54.225Z,70464.00
2018-08-12T11:07:54.244Z,66656.00
2018-08-12T11:08:54.263Z,63648.00
2018-08-12T11:09:54.269Z,64032.00
2018-08-12T11:10:54.283Z,66016.00
2018-08-12T11:11:54.300Z,67584.00
2018-08-12T11:12:54.316Z,64896.00
2018-08-12T11:13:54.333Z,58080.00
2018-08-12T11:14:54.344Z,47776.00
2018-08-12T11:15:54.426Z,38528.00
2018-08-12T11:16:54.373Z,30624.00
2018-08-12T11:17:54.391Z,22176.00
2018-08-12T11:18:54.409Z,13276.00
2018-08-12T11:19:55.026Z,5796.00
2018-08-12T11:20:54.437Z,2452.00
2018-08-12T11:21:54.452Z,2404.00
2018-08-12T11:22:54.470Z,2404.00
2018-08-12T11:23:54.506Z,2392.00
2018-08-12T11:24:54.496Z,2404.00
2018-08-12T11:25:54.521Z,2408.00
2018-08-12T11:26:54.524Z,2484.00
2018-08-12T11:27:54.542Z,2520.00
2018-08-12T11:28:54.577Z,2540.00
2018-08-12T11:29:54.563Z,2496.00
2018-08-12T11:30:54.571Z,2448.00
2018-08-12T11:31:54.585Z,2460.00
2018-08-12T11:32:54.594Z,2480.00
2018-08-12T11:33:54.605Z,2508.00
2018-08-12T11:34:54.725Z,2516.00
2018-08-12T11:35:54.630Z,2544.00
2018-08-12T11:36:54.634Z,2568.00
2018-08-12T11:37:54.643Z,2592.00
2018-08-12T11:38:54.903Z,2600.00
2018-08-12T11:39:54.686Z,2628.00
2018-08-12T11:40:54.670Z,2636.00
2018-08-12T11:41:54.692Z,2644.00
2018-08-12T11:42:54.693Z,2644.00
2018-08-12T11:43:54.759Z,2656.00
2018-08-12T11:44:54.705Z,2660.00
2018-08-12T11:45:54.716Z,2680.00
2018-08-12T11:46:54.725Z,2696.00
2018-08-12T11:47:54.729Z,2712.00
2018-08-12T11:48:54.737Z,2732.00
2018-08-12T11:49:54.746Z,2748.00
2018-08-12T11:50:55.479Z,2760.00
2018-08-12T11:51:54.761Z,2752.00
2018-08-12T11:52:54.767Z,2768.00
2018-08-12T11:53:54.787Z,2792.00
2018-08-12T11:54:54.783Z,2820.00
2018-08-12T11:55:54.793Z,2852.00
2018-08-12T11:56:54.843Z,2896.00
2018-08-12T11:57:54.818Z,2948.00
2018-08-12T11:58:54.813Z,3004.00
2018-08-12T11:59:54.819Z,3060.00
2018-08-12T12:00:54.825Z,3076.00
2018-08-12T12:01:54.840Z,3052.00
2018-08-12T12:02:54.845Z,3068.00
2018-08-12T12:03:54.846Z,3068.00
2018-08-12T12:04:54.860Z,3056.00
2018-08-12T12:05:54.885Z,3072.00
2018-08-12T12:06:54.875Z,3076.00
2018-08-12T12:07:54.875Z,3068.00
2018-08-12T12:08:54.928Z,3064.00
2018-08-12T12:09:54.893Z,3052.00
2018-08-12T12:10:54.897Z,3036.00
2018-08-12T12:11:54.901Z,3016.00
2018-08-12T12:12:54.920Z,3004.00
2018-08-12T12:13:54.916Z,2976.00
2018-08-12T12:14:54.922Z,2972.00
2018-08-12T12:15:54.956Z,2964.00
2018-08-12T12:16:54.943Z,2960.00
2018-08-12T12:17:54.940Z,2960.00
2018-08-12T12:18:54.965Z,2956.00
2018-08-12T12:19:54.953Z,2956.00
2018-08-12T12:20:54.958Z,2968.00
2018-08-12T12:21:55.829Z,2972.00
2018-08-12T12:22:55.067Z,2972.00
2018-08-12T12:23:54.980Z,2996.00
2018-08-12T12:24:54.983Z,3004.00
2018-08-12T12:25:54.994Z,3036.00